Time;durP1;ratioP1;P1;durP2;ratioP2;P2;SDS_P1;SDS_P2;PMS_P1;PMS_P2;Temp;Humidity;BMP_temperature;BMP_pressure;BME280_temperature;BME280_humidity;BME280_pressure;Samples;Min_cycle;Max_cycle;Signal;HPM_P1;HPM_P2
2023/04/19 00:00:19;;;;;;;8.65;3.15;;;;;;;7.63;100.00;103136.00;5144989;27;20055;-92
2023/04/19 00:02:48;;;;;;;9.07;3.25;;;;;;;7.29;100.00;103094.72;5144830;27;20122;-91
2023/04/19 00:05:15;;;;;;;8.77;3.30;;;;;;;7.01;100.00;103038.72;5144296;27;20055;-91
2023/04/19 00:07:42;;;;;;;9.10;3.22;;;;;;;7.37;100.00;103100.03;5143616;27;20137;-91
2023/04/19 00:10:09;;;;;;;10.63;3.60;;;;;;;7.38;100.00;103114.81;5125098;27;20051;-91
2023/04/19 00:12:36;;;;;;;9.68;3.45;;;;;;;6.83;100.00;103039.34;5143852;27;20124;-93
2023/04/19 00:15:03;;;;;;;12.35;3.20;;;;;;;6.77;100.00;103039.28;5143759;27;20055;-92
2023/04/19 00:17:30;;;;;;;9.65;3.35;;;;;;;7.15;100.00;103114.50;5143828;27;20495;-91
2023/04/19 00:19:57;;;;;;;8.77;3.55;;;;;;;6.94;100.00;103078.56;5143969;27;20071;-91
2023/04/19 00:22:25;;;;;;;11.27;3.58;;;;;;;7.09;100.00;103094.44;5142028;27;20057;-91
2023/04/19 00:24:52;;;;;;;9.05;3.10;;;;;;;7.27;100.00;103119.88;5141741;27;20047;-91
2023/04/19 00:27:19;;;;;;;8.85;3.17;;;;;;;7.12;100.00;103084.06;5143278;27;20122;-91
2023/04/19 00:29:46;;;;;;;8.93;2.63;;;;;;;6.99;100.00;103041.34;5130400;27;20393;-91
2023/04/19 00:32:14;;;;;;;10.88;3.67;;;;;;;6.80;100.00;103029.78;5139535;27;20055;-91
2023/04/19 00:34:41;;;;;;;8.43;3.78;;;;;;;6.73;100.00;103008.81;5141389;27;20043;-91
2023/04/19 00:37:09;;;;;;;8.55;3.30;;;;;;;7.77;100.00;103111.88;5126512;27;20051;-91
2023/04/19 00:39:36;;;;;;;14.20;4.13;;;;;;;7.56;100.00;103078.59;5141305;27;20043;-91
2023/04/19 00:42:03;;;;;;;11.90;3.80;;;;;;;7.27;100.00;103048.66;5136908;27;20070;-90
2023/04/19 00:44:30;;;;;;;11.35;3.35;;;;;;;6.89;100.00;103072.41;5141105;27;20035;-91
2023/04/19 00:46:58;;;;;;;11.98;3.45;;;;;;;6.74;100.00;103076.53;5131098;27;20050;-90
2023/04/19 00:49:26;;;;;;;8.82;3.45;;;;;;;6.63;100.00;103078.09;5136020;27;20058;-90
2023/04/19 00:51:53;;;;;;;9.73;3.72;;;;;;;6.53;100.00;103078.78;5140399;27;20051;-91
2023/04/19 00:54:20;;;;;;;11.50;4.03;;;;;;;6.56;100.00;103110.97;5140791;27;20050;-91
2023/04/19 00:56:47;;;;;;;13.85;4.57;;;;;;;6.28;100.00;103073.16;5141037;27;20049;-91
2023/04/19 00:59:15;;;;;;;14.68;4.70;;;;;;;6.38;100.00;103101.09;5140687;27;20059;-91
2023/04/19 01:01:42;;;;;;;9.40;3.50;;;;;;;6.24;100.00;103081.78;5140385;27;20047;-91
2023/04/19 01:04:09;;;;;;;8.18;3.22;;;;;;;6.32;100.00;103103.63;5141504;27;20086;-91
2023/04/19 01:06:39;;;;;;;9.85;4.07;;;;;;;6.21;100.00;103064.38;5141546;27;20055;-92
2023/04/19 01:09:05;;;;;;;11.05;4.00;;;;;;;5.82;100.00;103028.09;5141498;27;20120;-91
2023/04/19 01:11:33;;;;;;;10.45;4.18;;;;;;;6.29;100.00;103121.75;5140287;27;20385;-91
2023/04/19 01:13:59;;;;;;;10.15;3.85;;;;;;;6.07;100.00;103078.84;5141667;27;20045;-91
2023/04/19 01:16:27;;;;;;;11.68;4.50;;;;;;;5.95;100.00;103043.06;5140459;27;20050;-91
2023/04/19 01:18:54;;;;;;;10.05;4.43;;;;;;;6.24;100.00;103097.38;5127118;27;20500;-91
2023/04/19 01:21:21;;;;;;;11.25;3.30;;;;;;;6.25;100.00;103080.91;5140558;27;20047;-91
2023/04/19 01:23:48;;;;;;;8.90;3.50;;;;;;;6.29;100.00;103076.66;5141292;27;20047;-91
2023/04/19 01:26:15;;;;;;;12.77;3.65;;;;;;;6.26;100.00;103074.88;5141889;27;20058;-91
2023/04/19 01:28:41;;;;;;;8.82;3.25;;;;;;;6.37;100.00;103095.88;5141905;27;20046;-91
2023/04/19 01:31:08;;;;;;;16.13;4.45;;;;;;;6.16;100.00;103060.84;5135734;27;20058;-92
2023/04/19 01:33:35;;;;;;;10.68;3.40;;;;;;;6.25;100.00;103078.31;5140287;27;20056;-92
2023/04/19 01:36:02;;;;;;;7.25;3.05;;;;;;;6.48;100.00;103115.19;5145802;27;20393;-92
2023/04/19 01:38:30;;;;;;;10.95;3.85;;;;;;;6.40;100.00;103107.22;5142037;27;20055;-91
2023/04/19 01:40:57;;;;;;;8.13;3.05;;;;;;;6.22;100.00;103118.16;5140101;27;20467;-92
2023/04/19 01:43:30;;;;;;;11.55;3.85;;;;;;;5.85;100.00;103068.00;5140463;27;20044;-91
2023/04/19 01:45:57;;;;;;;11.63;3.50;;;;;;;5.61;100.00;103038.94;5139779;27;20043;-89
2023/04/19 01:48:24;;;;;;;10.07;3.90;;;;;;;5.71;100.00;103074.66;5132907;27;20540;-91
2023/04/19 01:50:51;;;;;;;11.13;3.50;;;;;;;5.70;100.00;103020.91;5121719;27;20044;-91
2023/04/19 01:53:18;;;;;;;9.68;3.72;;;;;;;5.97;100.00;103082.16;5138571;27;20704;-91
2023/04/19 01:55:45;;;;;;;10.57;4.35;;;;;;;5.85;100.00;103068.00;5140169;27;20043;-91
2023/04/19 01:58:11;;;;;;;9.80;3.63;;;;;;;5.84;100.00;103078.38;5139399;27;20047;-91
2023/04/19 02:00:38;;;;;;;10.45;3.58;;;;;;;5.99;100.00;103091.72;5140617;27;20058;-91
2023/04/19 02:03:05;;;;;;;9.18;3.40;;;;;;;5.88;100.00;103023.88;5140364;27;20047;-91
2023/04/19 02:05:33;;;;;;;9.30;3.58;;;;;;;6.10;100.00;103062.44;5131201;27;20117;-90
2023/04/19 02:08:00;;;;;;;11.50;3.85;;;;;;;6.01;100.00;103034.53;5133132;27;20062;-90
2023/04/19 02:10:27;;;;;;;12.88;4.20;;;;;;;6.31;100.00;103064.56;5142792;27;20040;-90
2023/04/19 02:12:54;;;;;;;9.60;3.80;;;;;;;6.31;100.00;103055.00;5138619;27;20469;-91
2023/04/19 02:15:21;;;;;;;8.10;3.22;;;;;;;6.27;100.00;103043.69;5138988;27;20458;-91
2023/04/19 02:17:48;;;;;;;9.93;3.03;;;;;;;6.43;100.00;103077.78;5137392;27;20051;-90
2023/04/19 02:20:15;;;;;;;9.32;3.83;;;;;;;6.35;100.00;103045.53;5139304;27;20039;-91
2023/04/19 02:22:42;;;;;;;9.70;3.45;;;;;;;6.26;100.00;103046.25;5135734;27;20062;-90
2023/04/19 02:25:09;;;;;;;10.27;3.22;;;;;;;6.34;100.00;103055.06;5139628;27;20062;-90
2023/04/19 02:27:36;;;;;;;9.70;3.55;;;;;;;6.25;100.00;103055.78;5139208;27;20066;-90
2023/04/19 02:30:03;;;;;;;8.68;3.22;;;;;;;6.17;100.00;103043.50;5138026;27;20438;-90
2023/04/19 02:32:30;;;;;;;11.38;4.22;;;;;;;5.95;100.00;103005.78;5132349;27;20043;-90
2023/04/19 02:34:58;;;;;;;8.10;3.33;;;;;;;5.52;100.00;102927.88;5128230;27;20079;-91
2023/04/19 02:37:25;;;;;;;11.88;4.35;;;;;;;6.27;100.00;103061.03;5132202;27;20058;-91
2023/04/19 02:39:51;;;;;;;10.27;3.67;;;;;;;6.29;100.00;103063.66;5139042;27;20058;-90
2023/04/19 02:42:19;;;;;;;9.13;3.38;;;;;;;6.00;100.00;103011.97;5138257;27;20047;-90
2023/04/19 02:44:46;;;;;;;10.10;3.55;;;;;;;6.06;100.00;103027.69;5138884;27;20404;-90
2023/04/19 02:47:13;;;;;;;10.80;3.72;;;;;;;6.14;100.00;103038.22;5138224;27;20051;-90
2023/04/19 02:49:41;;;;;;;9.07;3.65;;;;;;;6.39;100.00;103081.16;5139798;27;20065;-91
2023/04/19 02:52:08;;;;;;;10.85;3.60;;;;;;;6.01;100.00;103025.00;5139646;27;20062;-92
2023/04/19 02:54:35;;;;;;;8.75;3.72;;;;;;;5.76;100.00;102982.06;5137266;28;20063;-90
2023/04/19 02:57:02;;;;;;;11.40;4.00;;;;;;;5.57;100.00;102938.38;5118147;28;20055;-90
2023/04/19 02:59:29;;;;;;;15.95;4.95;;;;;;;6.10;100.00;103046.84;5129761;28;20055;-91
2023/04/19 03:01:56;;;;;;;11.10;4.28;;;;;;;6.40;100.00;103085.53;5137523;27;20507;-91
2023/04/19 03:04:23;;;;;;;12.00;4.35;;;;;;;6.27;100.00;103056.69;5139944;28;20062;-91
2023/04/19 03:06:51;;;;;;;13.93;5.22;;;;;;;6.10;100.00;103024.28;5143245;27;20043;-90
2023/04/19 03:09:18;;;;;;;15.30;5.00;;;;;;;6.29;100.00;103056.72;5144086;27;20086;-90
2023/04/19 03:11:45;;;;;;;15.02;4.93;;;;;;;6.26;100.00;103069.66;5131473;27;20050;-91
2023/04/19 03:14:12;;;;;;;11.48;4.13;;;;;;;6.47;100.00;103083.03;5138362;27;20043;-92
2023/04/19 03:16:39;;;;;;;14.40;4.70;;;;;;;6.24;100.00;103046.22;5143598;27;20059;-91
2023/04/19 03:19:06;;;;;;;16.73;4.93;;;;;;;6.14;100.00;103023.50;5135576;27;20048;-91
2023/04/19 03:21:33;;;;;;;14.20;4.68;;;;;;;6.21;100.00;103040.97;5136375;27;20445;-90
2023/04/19 03:24:00;;;;;;;13.82;4.78;;;;;;;6.47;100.00;103072.63;5122423;28;20043;-92
2023/04/19 03:26:27;;;;;;;14.02;5.45;;;;;;;6.24;100.00;103051.44;5132025;27;20134;-91
2023/04/19 03:28:54;;;;;;;18.90;4.88;;;;;;;6.18;100.00;103055.63;5142854;27;20073;-91
2023/04/19 03:31:21;;;;;;;10.38;3.67;;;;;;;6.15;100.00;103040.88;5141404;27;20442;-91
2023/04/19 03:33:48;;;;;;;13.07;4.88;;;;;;;6.18;100.00;103040.94;5138517;27;20044;-91
2023/04/19 03:36:15;;;;;;;17.10;6.47;;;;;;;6.40;100.00;103075.13;5132044;27;20644;-91
2023/04/19 03:38:43;;;;;;;16.42;6.72;;;;;;;6.31;100.00;103054.16;5144053;27;20551;-92
2023/04/19 03:41:20;;;;;;;14.80;5.25;;;;;;;6.25;100.00;103062.69;5142484;27;20138;-91
2023/04/19 03:43:47;;;;;;;11.18;4.45;;;;;;;6.27;100.00;103054.09;5142503;27;20051;-91
2023/04/19 03:46:14;;;;;;;11.00;4.68;;;;;;;6.21;100.00;103066.97;5143888;27;20047;-91
2023/04/19 03:48:41;;;;;;;13.80;4.68;;;;;;;5.84;100.00;103041.97;5143085;27;20076;-90
2023/04/19 03:51:08;;;;;;;7.85;3.17;;;;;;;5.94;100.00;103056.91;5142966;27;20075;-91
2023/04/19 03:53:35;;;;;;;8.70;2.70;;;;;;;5.89;100.00;103051.63;5141817;27;20047;-88
2023/04/19 03:56:02;;;;;;;9.02;3.08;;;;;;;5.79;100.00;103043.63;5141784;27;20400;-91
2023/04/19 03:58:29;;;;;;;8.77;3.10;;;;;;;5.50;100.00;102991.94;5140740;27;20055;-90
2023/04/19 04:00:57;;;;;;;8.65;2.60;;;;;;;6.08;100.00;103052.88;5142032;27;20062;-89
2023/04/19 04:03:24;;;;;;;10.23;2.70;;;;;;;6.30;100.00;103057.59;5141236;27;20051;-90
2023/04/19 04:05:55;;;;;;;8.90;2.90;;;;;;;6.08;100.00;103065.88;5142065;27;20096;-90
2023/04/19 04:08:22;;;;;;;8.07;2.60;;;;;;;5.98;100.00;103099.50;5140427;27;20062;-90
2023/04/19 04:10:48;;;;;;;6.10;2.30;;;;;;;5.53;100.00;103062.19;5139464;27;20464;-91
2023/04/19 04:13:15;;;;;;;6.15;2.33;;;;;;;5.35;100.00;103015.00;5140737;27;20103;-91
2023/04/19 04:15:42;;;;;;;7.07;2.72;;;;;;;5.27;100.00;103009.66;5141976;27;20506;-91
2023/04/19 04:18:09;;;;;;;6.53;2.50;;;;;;;5.27;100.00;103067.69;5142348;27;20157;-91
2023/04/19 04:20:37;;;;;;;6.13;2.10;;;;;;;5.94;100.00;103079.44;5136887;27;20043;-91
2023/04/19 04:23:03;;;;;;;4.95;1.92;;;;;;;5.88;100.00;103049.00;5140828;27;20062;-90
2023/04/19 04:25:31;;;;;;;5.45;2.25;;;;;;;6.14;100.00;103092.84;5140143;27;20043;-90
2023/04/19 04:27:58;;;;;;;4.93;1.98;;;;;;;5.74;100.00;103040.94;5139286;27;20054;-90
2023/04/19 04:30:25;;;;;;;7.50;2.15;;;;;;;5.68;100.00;103020.00;5139766;27;20130;-90
2023/04/19 04:32:56;;;;;;;5.00;2.03;;;;;;;5.78;100.00;103055.75;5139266;27;20047;-90
2023/04/19 04:35:24;;;;;;;4.78;1.80;;;;;;;5.68;100.00;103038.22;5139577;27;20067;-91
2023/04/19 04:37:52;;;;;;;6.82;2.40;;;;;;;5.86;100.00;103061.09;5137229;27;20058;-91
2023/04/19 04:40:20;;;;;;;5.97;2.13;;;;;;;5.82;100.00;103057.53;5135203;27;20450;-91
2023/04/19 04:42:47;;;;;;;4.95;2.10;;;;;;;6.04;100.00;103090.09;5139123;27;20043;-90
2023/04/19 04:45:17;;;;;;;6.03;2.00;;;;;;;5.89;100.00;103058.53;5139761;27;20050;-91
2023/04/19 04:47:45;;;;;;;4.95;1.80;;;;;;;5.90;100.00;103081.97;5130376;27;20051;-91
2023/04/19 04:50:12;;;;;;;5.45;2.00;;;;;;;5.88;100.00;103078.47;5118362;28;20084;-90
2023/04/19 04:52:38;;;;;;;6.00;2.10;;;;;;;6.02;100.00;103107.41;5134929;27;20051;-90
2023/04/19 04:55:06;;;;;;;6.22;2.50;;;;;;;5.74;100.00;103071.25;5139705;27;20051;-90
2023/04/19 04:57:33;;;;;;;6.35;2.40;;;;;;;5.76;100.00;103065.25;5127273;27;20052;-89
2023/04/19 04:59:59;;;;;;;6.88;2.50;;;;;;;5.78;100.00;103065.28;5121640;27;20051;-91
2023/04/19 05:02:26;;;;;;;5.55;2.10;;;;;;;5.70;100.00;103050.41;5127578;27;20043;-89
2023/04/19 05:04:53;;;;;;;5.28;2.33;;;;;;;5.63;100.00;103055.44;5135877;27;20061;-90
2023/04/19 05:07:20;;;;;;;6.35;2.25;;;;;;;5.57;100.00;103050.13;5133093;27;20054;-90
2023/04/19 05:09:47;;;;;;;5.68;2.15;;;;;;;5.31;100.00;103034.84;5140485;27;20047;-90
2023/04/19 05:12:14;;;;;;;5.57;2.40;;;;;;;5.49;100.00;103056.03;5132767;27;20055;-90
2023/04/19 05:14:41;;;;;;;7.28;2.63;;;;;;;5.68;100.00;103064.19;5139497;27;20039;-90
2023/04/19 05:17:07;;;;;;;7.40;3.00;;;;;;;5.47;100.00;103059.44;5141231;27;20055;-91
2023/04/19 05:19:34;;;;;;;6.28;2.60;;;;;;;5.77;100.00;103093.00;5140161;27;20038;-91
2023/04/19 05:22:01;;;;;;;5.82;2.30;;;;;;;5.95;100.00;103083.78;5134107;27;20050;-90
2023/04/19 05:24:28;;;;;;;6.53;2.60;;;;;;;5.69;100.00;103060.78;5121574;27;20126;-89
2023/04/19 05:26:55;;;;;;;6.50;2.60;;;;;;;6.00;100.00;103100.38;5125380;27;20035;-88
2023/04/19 05:29:22;;;;;;;6.38;2.50;;;;;;;5.82;100.00;103048.88;5126987;27;20488;-88
2023/04/19 05:31:49;;;;;;;6.50;2.72;;;;;;;5.78;100.00;103045.34;5127582;27;20051;-88
2023/04/19 05:34:15;;;;;;;6.20;2.55;;;;;;;6.18;100.00;103105.97;5125745;27;20152;-88
2023/04/19 05:36:45;;;;;;;8.23;2.92;;;;;;;5.80;100.00;103047.97;5134914;27;20075;-86
2023/04/19 05:39:12;;;;;;;5.10;2.15;;;;;;;5.74;100.00;103025.34;5129065;27;20051;-88
2023/04/19 05:41:39;;;;;;;6.82;2.67;;;;;;;5.89;100.00;103067.22;5128136;27;20150;-89
2023/04/19 05:44:06;;;;;;;8.77;3.80;;;;;;;5.45;100.00;103042.94;5134155;27;20520;-86
2023/04/19 05:46:33;;;;;;;9.50;3.67;;;;;;;6.11;100.00;103100.59;5135364;27;20043;-88
2023/04/19 05:49:00;;;;;;;7.03;2.80;;;;;;;5.92;100.00;103078.56;5134852;27;20047;-89
2023/04/19 05:51:27;;;;;;;8.50;2.65;;;;;;;6.16;100.00;103105.06;5131978;27;20454;-90
2023/04/19 05:53:53;;;;;;;6.25;2.55;;;;;;;6.12;100.00;103076.34;5135578;27;20085;-89
2023/04/19 05:56:22;;;;;;;6.78;2.88;;;;;;;5.81;100.00;103028.94;5129956;27;20063;-88
2023/04/19 05:58:49;;;;;;;8.48;3.72;;;;;;;6.18;100.00;103069.53;5128046;27;20047;-89
2023/04/19 06:01:16;;;;;;;7.47;2.75;;;;;;;6.14;100.00;103062.50;5130611;27;20401;-89
2023/04/19 06:03:43;;;;;;;8.95;3.72;;;;;;;5.86;100.00;103054.19;5121549;27;20044;-89
2023/04/19 06:06:10;;;;;;;8.23;3.38;;;;;;;5.88;100.00;103034.28;5129055;27;20144;-88
2023/04/19 06:08:37;;;;;;;9.85;4.53;;;;;;;6.03;100.00;103071.84;5133724;27;20047;-88
2023/04/19 06:11:04;;;;;;;10.80;4.47;;;;;;;6.33;100.00;103109.69;5135312;27;20036;-89
2023/04/19 06:13:50;;;;;;;9.65;4.40;;;;;;;6.00;100.00;103043.19;5134498;27;20050;-88
2023/04/19 06:16:17;;;;;;;11.02;4.05;;;;;;;5.97;100.00;103056.16;5126976;27;20381;-87
2023/04/19 06:18:44;;;;;;;12.80;3.85;;;;;;;6.17;100.00;103057.38;5124182;27;20116;-88
2023/04/19 06:21:10;;;;;;;7.85;3.05;;;;;;;6.18;100.00;103045.22;5131440;27;20043;-87
2023/04/19 06:23:37;;;;;;;8.55;3.42;;;;;;;6.20;100.00;103033.16;5134084;27;20499;-88
2023/04/19 06:26:04;;;;;;;7.20;2.95;;;;;;;6.41;100.00;103051.72;5133638;27;20096;-88
2023/04/19 06:28:31;;;;;;;6.90;2.88;;;;;;;6.45;100.00;103045.72;5135404;27;20054;-88
2023/04/19 06:30:58;;;;;;;8.98;3.53;;;;;;;6.57;100.00;103036.34;5120879;27;20051;-87
2023/04/19 06:33:24;;;;;;;8.27;3.35;;;;;;;6.62;100.00;103040.78;5133351;27;20043;-90
2023/04/19 06:35:51;;;;;;;8.68;3.80;;;;;;;6.87;100.00;103061.09;5134850;27;20126;-88
2023/04/19 06:38:18;;;;;;;8.95;3.55;;;;;;;8.20;100.00;103076.66;5133587;27;20043;-88
2023/04/19 06:40:45;;;;;;;11.20;4.40;;;;;;;8.28;100.00;103048.91;5132695;27;20065;-89
2023/04/19 06:43:12;;;;;;;7.95;3.50;;;;;;;9.18;100.00;103032.16;5128288;27;20047;-89
2023/04/19 06:45:38;;;;;;;8.15;3.40;;;;;;;9.70;100.00;103045.41;5113830;28;20487;-89
2023/04/19 06:48:05;;;;;;;8.68;3.53;;;;;;;9.91;100.00;103018.41;5118082;28;20154;-89
2023/04/19 06:50:32;;;;;;;8.95;3.45;;;;;;;9.91;100.00;103049.81;5133803;27;20553;-88
2023/04/19 06:52:59;;;;;;;9.82;4.88;;;;;;;9.55;100.00;103043.63;5129034;27;20054;-89
2023/04/19 06:55:27;;;;;;;8.65;3.10;;;;;;;10.21;100.00;103022.81;5129274;28;20074;-89
2023/04/19 06:57:54;;;;;;;10.77;4.78;;;;;;;10.73;100.00;103086.56;5129832;28;20088;-89
2023/04/19 07:00:21;;;;;;;6.75;2.95;;;;;;;10.67;100.00;103103.19;5126070;28;20047;-89
2023/04/19 07:02:50;;;;;;;7.75;3.05;;;;;;;10.91;100.00;103067.38;5130360;28;20043;-89
2023/04/19 07:05:18;;;;;;;11.60;4.03;;;;;;;10.98;100.00;103097.94;5133250;28;20043;-90
2023/04/19 07:07:44;;;;;;;7.20;2.95;;;;;;;10.94;100.00;103072.56;5122860;28;20496;-89
2023/04/19 07:10:11;;;;;;;8.10;2.80;;;;;;;11.56;100.00;103044.41;5130330;28;20070;-89
2023/04/19 07:12:38;;;;;;;8.85;3.90;;;;;;;11.78;100.00;103061.78;5133903;27;20058;-90
2023/04/19 07:15:05;;;;;;;11.02;4.78;;;;;;;11.78;100.00;103080.16;5126587;28;20074;-88
2023/04/19 07:17:34;;;;;;;9.23;3.97;;;;;;;11.47;100.00;103040.06;5134086;27;20066;-89
2023/04/19 07:20:03;;;;;;;8.35;3.67;;;;;;;11.04;100.00;103073.44;5126022;28;20048;-89
2023/04/19 07:22:30;;;;;;;8.20;3.55;;;;;;;11.33;100.00;103076.88;5134029;28;20039;-89
2023/04/19 07:24:57;;;;;;;8.20;3.85;;;;;;;11.87;100.00;103065.25;5133239;28;20073;-89
2023/04/19 07:27:24;;;;;;;10.48;4.30;;;;;;;11.74;100.00;103046.06;5119977;27;20048;-89
2023/04/19 07:29:52;;;;;;;10.85;5.50;;;;;;;11.07;100.00;103066.44;5135031;27;20047;-89
2023/04/19 07:32:19;;;;;;;10.32;4.25;;;;;;;11.40;100.00;103056.72;5132755;28;20051;-89
2023/04/19 07:34:46;;;;;;;13.10;4.95;;;;;;;11.53;100.00;103058.41;5121612;27;20481;-89
2023/04/19 07:37:13;;;;;;;10.70;5.20;;;;;;;11.67;100.00;103074.09;5112933;28;20047;-89
2023/04/19 07:39:40;;;;;;;8.73;3.90;;;;;;;12.06;100.00;103077.41;5120803;28;20059;-90
2023/04/19 07:42:07;;;;;;;9.65;4.38;;;;;;;12.40;100.00;103045.63;5132775;28;20051;-89
2023/04/19 07:44:34;;;;;;;12.13;5.50;;;;;;;12.18;100.00;103079.06;5133557;28;20043;-89
2023/04/19 07:47:00;;;;;;;12.82;6.10;;;;;;;12.44;100.00;103063.09;5121208;28;20378;-88
2023/04/19 07:49:32;;;;;;;11.48;5.13;;;;;;;11.75;100.00;103056.53;5112938;28;20130;-90
2023/04/19 07:52:03;;;;;;;10.60;4.95;;;;;;;11.87;100.00;103109.88;5119234;27;20044;-89
2023/04/19 07:54:31;;;;;;;9.57;3.70;;;;;;;12.48;100.00;103072.72;5133710;27;20046;-89
2023/04/19 07:56:57;;;;;;;11.20;5.15;;;;;;;12.18;100.00;103067.69;5127290;27;20477;-88
2023/04/19 07:59:24;;;;;;;10.05;4.40;;;;;;;11.98;100.00;103052.09;5134534;27;20051;-88
2023/04/19 08:01:51;;;;;;;9.68;3.70;;;;;;;12.54;100.00;103063.91;5125208;27;20396;-89
2023/04/19 08:04:18;;;;;;;9.57;4.15;;;;;;;12.68;100.00;103067.28;5133751;27;20047;-89
2023/04/19 08:06:47;;;;;;;10.07;5.10;;;;;;;12.55;100.00;103099.81;5134762;27;20039;-89
2023/04/19 08:09:13;;;;;;;13.75;5.68;;;;;;;12.33;100.00;103046.56;5137096;27;20055;-90
2023/04/19 08:11:41;;;;;;;9.32;4.65;;;;;;;12.69;100.00;103026.97;5135138;27;20075;-89
2023/04/19 08:14:08;;;;;;;9.10;3.92;;;;;;;13.13;100.00;103016.84;5123937;27;20047;-89
2023/04/19 08:16:55;;;;;;;9.57;4.45;;;;;;;12.84;100.00;103070.66;5122463;27;20129;-89
2023/04/19 08:19:42;;;;;;;9.88;3.85;;;;;;;12.61;100.00;103065.59;5130038;27;20047;-89
2023/04/19 08:22:09;;;;;;;8.68;3.70;;;;;;;12.37;100.00;103078.94;5130309;27;20048;-89
2023/04/19 08:24:36;;;;;;;8.25;3.30;;;;;;;12.25;100.00;103049.28;5117293;28;20054;-89
2023/04/19 08:27:03;;;;;;;9.48;4.43;;;;;;;12.13;100.00;103055.47;5134887;27;20092;-89
2023/04/19 08:29:29;;;;;;;10.27;4.43;;;;;;;12.24;100.00;103046.66;5137747;27;20043;-88
2023/04/19 08:31:56;;;;;;;10.13;4.65;;;;;;;12.33;100.00;103050.06;5131110;27;20047;-90
2023/04/19 08:34:23;;;;;;;10.43;4.35;;;;;;;12.98;100.00;103080.13;5130997;27;20175;-90
2023/04/19 08:36:50;;;;;;;15.20;5.15;;;;;;;12.66;100.00;103052.41;5131401;27;20044;-88
2023/04/19 08:39:30;;;;;;;10.90;4.03;;;;;;;12.95;100.00;103057.38;5130584;27;20052;-90
2023/04/19 08:42:05;;;;;;;11.93;4.90;;;;;;;13.17;100.00;103041.38;5127870;27;20020;-90
2023/04/19 08:44:38;;;;;;;10.20;3.90;;;;;;;13.47;100.00;103063.81;5136487;27;20077;-89
2023/04/19 08:47:25;;;;;;;9.48;3.88;;;;;;;13.74;100.00;103054.72;5120966;27;20055;-89
2023/04/19 08:50:01;;;;;;;8.52;3.70;;;;;;;14.02;100.00;103044.66;5123813;27;20047;-89
2023/04/19 08:52:35;;;;;;;14.05;4.18;;;;;;;14.17;100.00;103083.03;5124672;27;20084;-89
2023/04/19 08:55:20;;;;;;;8.98;3.42;;;;;;;13.87;100.00;103029.06;5124048;27;20039;-89
2023/04/19 08:57:47;;;;;;;8.60;3.13;;;;;;;13.89;100.00;103024.66;5131521;27;20050;-88
2023/04/19 09:00:14;;;;;;;9.23;3.80;;;;;;;13.78;100.00;103013.41;5122310;27;20048;-88
2023/04/19 09:02:46;;;;;;;9.48;3.20;;;;;;;14.54;100.00;103074.53;5130407;27;20047;-88
2023/04/19 09:05:15;;;;;;;9.85;3.17;;;;;;;14.41;100.00;103025.56;5132910;27;20092;-89
2023/04/19 09:07:42;;;;;;;9.20;3.67;;;;;;;14.46;100.00;103049.22;5137329;27;20486;-88
2023/04/19 09:10:12;;;;;;;11.35;3.33;;;;;;;14.78;100.00;103064.50;5138227;27;20409;-88
2023/04/19 09:12:40;;;;;;;11.35;3.13;;;;;;;14.41;100.00;103083.53;5134944;27;20503;-89
2023/04/19 09:15:08;;;;;;;10.95;3.03;;;;;;;14.38;100.00;103081.84;5137411;27;20066;-90
2023/04/19 09:17:36;;;;;;;10.93;3.50;;;;;;;13.94;100.00;103016.69;5126869;27;20047;-90
2023/04/19 09:20:04;;;;;;;8.70;3.13;;;;;;;13.97;100.00;103033.31;5131556;27;20051;-90
2023/04/19 09:22:32;;;;;;;11.75;3.28;;;;;;;14.20;100.00;103048.75;5134987;27;20130;-90
2023/04/19 09:25:00;;;;;;;9.73;2.88;;;;;;;14.31;100.00;103043.31;5124478;27;20077;-90
2023/04/19 09:27:31;;;;;;;7.60;2.75;;;;;;;14.13;100.00;103041.84;5133939;27;20447;-89
2023/04/19 09:30:00;;;;;;;7.93;3.13;;;;;;;14.12;100.00;103081.38;5135778;27;20051;-89
2023/04/19 09:32:28;;;;;;;9.18;3.00;;;;;;;13.91;100.00;103066.75;5125903;27;20495;-90
2023/04/19 09:34:59;;;;;;;8.15;2.97;;;;;;;13.93;100.00;103018.41;5134334;27;20499;-89
2023/04/19 09:37:26;;;;;;;7.35;2.80;;;;;;;13.84;100.00;103000.13;5140940;27;20051;-90
2023/04/19 09:39:55;;;;;;;9.27;3.40;;;;;;;13.89;100.00;103071.19;5115415;28;20043;-89
2023/04/19 09:42:22;;;;;;;15.43;3.67;;;;;;;13.78;100.00;103032.69;5128872;27;20080;-89
2023/04/19 09:45:10;;;;;;;12.48;3.33;;;;;;;13.34;100.00;103052.59;5122888;27;20043;-90
2023/04/19 09:47:39;;;;;;;10.43;3.17;;;;;;;13.44;100.00;103040.22;5132866;27;20466;-90
2023/04/19 09:50:10;;;;;;;7.05;2.58;;;;;;;13.69;100.00;103080.22;5123834;27;20108;-90
2023/04/19 09:52:51;;;;;;;7.43;3.17;;;;;;;13.91;100.00;103086.06;5132949;27;20043;-93
2023/04/19 09:55:19;;;;;;;8.55;3.25;;;;;;;13.59;100.00;103023.31;5137254;27;20084;-93
2023/04/19 09:57:49;;;;;;;10.05;3.20;;;;;;;13.56;100.00;103040.00;5137042;27;20458;-93
2023/04/19 10:00:16;;;;;;;11.23;3.35;;;;;;;13.66;100.00;103022.34;5132667;27;20480;-93
2023/04/19 10:02:46;;;;;;;9.82;2.72;;;;;;;13.90;100.00;103067.63;5132669;27;20057;-93
2023/04/19 10:05:16;;;;;;;9.50;2.85;;;;;;;13.26;100.00;102986.88;5135991;27;20047;-90
2023/04/19 10:07:49;;;;;;;11.88;3.22;;;;;;;13.58;100.00;103011.94;5137041;27;20457;-93
2023/04/19 10:10:17;;;;;;;9.50;3.00;;;;;;;13.97;100.00;103086.00;5135822;27;20051;-93
2023/04/19 10:12:52;;;;;;;9.25;3.05;;;;;;;13.51;100.00;103022.53;5136510;27;20043;-93
2023/04/19 10:15:22;;;;;;;10.57;3.30;;;;;;;13.79;100.00;103031.81;5135309;27;20047;-93
2023/04/19 10:17:50;;;;;;;7.22;3.08;;;;;;;13.68;100.00;103020.56;5130945;27;20052;-93
2023/04/19 10:20:23;;;;;;;9.45;3.05;;;;;;;13.59;100.00;103047.00;5114996;28;20047;-93
2023/04/19 10:22:50;;;;;;;10.65;3.22;;;;;;;13.83;100.00;103049.31;5132619;27;20054;-93
2023/04/19 10:25:17;;;;;;;12.10;3.60;;;;;;;13.74;100.00;103002.06;5134992;27;20054;-93
2023/04/19 10:27:47;;;;;;;12.27;3.78;;;;;;;14.19;100.00;103073.34;5136361;27;20047;-92
2023/04/19 10:30:27;;;;;;;12.77;3.72;;;;;;;14.39;100.00;103072.16;5135609;27;20484;-92
2023/04/19 10:32:56;;;;;;;12.43;4.10;;;;;;;13.99;100.00;103033.28;5133609;27;20054;-92
2023/04/19 10:35:28;;;;;;;10.20;3.00;;;;;;;13.98;100.00;103037.66;5134918;27;20081;-92
2023/04/19 10:38:12;;;;;;;10.43;3.35;;;;;;;13.77;100.00;103015.16;5135243;27;20373;-90
2023/04/19 10:41:00;;;;;;;7.70;2.63;;;;;;;14.73;100.00;103063.69;5132945;27;20088;-92
2023/04/19 10:43:29;;;;;;;8.15;2.72;;;;;;;14.38;100.00;102979.06;5116537;27;20143;-92
2023/04/19 10:46:06;;;;;;;11.02;2.47;;;;;;;14.43;100.00;103045.75;5133784;27;20354;-92
2023/04/19 10:48:37;;;;;;;7.43;2.65;;;;;;;14.09;100.00;103015.56;5131043;27;20055;-92
2023/04/19 10:51:06;;;;;;;7.57;2.58;;;;;;;14.28;100.00;103027.53;5120512;27;20060;-91
2023/04/19 10:53:52;;;;;;;9.52;3.00;;;;;;;14.16;100.00;103059.34;5134308;27;20051;-92
2023/04/19 10:56:20;;;;;;;9.35;3.25;;;;;;;13.83;100.00;102995.78;5122554;28;20051;-91
2023/04/19 10:59:06;;;;;;;9.45;3.17;;;;;;;14.18;100.00;103058.44;5113774;28;20044;-91
2023/04/19 11:01:41;;;;;;;10.60;3.30;;;;;;;13.85;100.00;103036.97;5121220;28;20055;-93
2023/04/19 11:04:10;;;;;;;8.15;3.05;;;;;;;14.41;100.00;103050.16;5134382;27;20096;-91
2023/04/19 11:06:56;;;;;;;9.65;3.45;;;;;;;13.96;100.00;102988.56;5128052;28;20048;-92
2023/04/19 11:09:27;;;;;;;8.65;3.22;;;;;;;14.20;100.00;103006.59;5114394;28;20059;-92
2023/04/19 11:11:59;;;;;;;11.55;3.58;;;;;;;14.59;100.00;103050.78;5121261;28;20043;-92
2023/04/19 11:14:30;;;;;;;7.75;3.17;;;;;;;14.33;100.00;102967.72;5134880;27;20414;-91
2023/04/19 11:16:57;;;;;;;10.00;3.20;;;;;;;14.22;100.00;102990.78;5134924;28;20047;-92
2023/04/19 11:19:24;;;;;;;8.43;3.05;;;;;;;13.86;100.00;102948.31;5136435;28;20538;-92
2023/04/19 11:21:51;;;;;;;12.73;2.95;;;;;;;14.64;100.00;103037.50;5135251;28;20492;-93
2023/04/19 11:24:19;;;;;;;7.65;3.15;;;;;;;13.91;100.00;103022.00;5133895;28;20050;-93